sensor_id;sensor_type;location;lat;lon;timestamp;P1;durP1;ratioP1;P2;durP2;ratioP2
35578;SDS011;21687;48.900;9.188;2023-11-21T00:02:24;6.00;;;2.40;;
35578;SDS011;21687;48.900;9.188;2023-11-21T00:04:52;6.13;;;2.30;;
35578;SDS011;21687;48.900;9.188;2023-11-21T00:07:18;3.57;;;2.50;;
35578;SDS011;21687;48.900;9.188;2023-11-21T00:09:46;3.70;;;2.13;;
35578;SDS011;21687;48.900;9.188;2023-11-21T00:12:13;5.77;;;2.00;;
35578;SDS011;21687;48.900;9.188;2023-11-21T00:14:39;6.60;;;2.30;;
35578;SDS011;21687;48.900;9.188;2023-11-21T00:17:06;4.40;;;2.17;;
35578;SDS011;21687;48.900;9.188;2023-11-21T00:19:32;6.37;;;2.23;;
35578;SDS011;21687;48.900;9.188;2023-11-21T00:22:00;4.67;;;2.00;;
35578;SDS011;21687;48.900;9.188;2023-11-21T00:24:26;6.53;;;2.07;;
35578;SDS011;21687;48.900;9.188;2023-11-21T00:26:52;6.80;;;2.20;;
35578;SDS011;21687;48.900;9.188;2023-11-21T00:29:19;4.53;;;1.83;;
35578;SDS011;21687;48.900;9.188;2023-11-21T00:31:45;5.70;;;2.03;;
35578;SDS011;21687;48.900;9.188;2023-11-21T00:34:11;6.03;;;2.20;;
35578;SDS011;21687;48.900;9.188;2023-11-21T00:36:38;3.40;;;1.97;;
35578;SDS011;21687;48.900;9.188;2023-11-21T00:39:05;2.70;;;1.93;;
35578;SDS011;21687;48.900;9.188;2023-11-21T00:41:31;4.40;;;2.00;;
35578;SDS011;21687;48.900;9.188;2023-11-21T00:43:58;4.50;;;1.83;;
35578;SDS011;21687;48.900;9.188;2023-11-21T00:46:24;3.07;;;1.70;;
35578;SDS011;21687;48.900;9.188;2023-11-21T00:48:53;4.07;;;1.67;;
35578;SDS011;21687;48.900;9.188;2023-11-21T00:51:20;4.60;;;1.73;;
35578;SDS011;21687;48.900;9.188;2023-11-21T00:53:47;5.00;;;2.00;;
35578;SDS011;21687;48.900;9.188;2023-11-21T00:56:13;5.33;;;2.50;;
35578;SDS011;21687;48.900;9.188;2023-11-21T00:58:40;10.23;;;3.13;;
35578;SDS011;21687;48.900;9.188;2023-11-21T01:01:11;4.43;;;2.07;;
35578;SDS011;21687;48.900;9.188;2023-11-21T01:03:38;3.77;;;2.10;;
35578;SDS011;21687;48.900;9.188;2023-11-21T01:06:04;4.10;;;2.00;;
35578;SDS011;21687;48.900;9.188;2023-11-21T01:08:33;4.70;;;2.03;;
35578;SDS011;21687;48.900;9.188;2023-11-21T01:10:59;3.63;;;1.70;;
35578;SDS011;21687;48.900;9.188;2023-11-21T01:13:26;3.30;;;1.90;;
35578;SDS011;21687;48.900;9.188;2023-11-21T01:15:55;5.53;;;2.03;;
35578;SDS011;21687;48.900;9.188;2023-11-21T01:18:21;7.73;;;2.10;;
35578;SDS011;21687;48.900;9.188;2023-11-21T01:20:50;4.73;;;1.90;;
35578;SDS011;21687;48.900;9.188;2023-11-21T01:23:19;4.50;;;2.00;;
35578;SDS011;21687;48.900;9.188;2023-11-21T01:25:45;4.10;;;1.93;;
35578;SDS011;21687;48.900;9.188;2023-11-21T01:28:11;4.00;;;1.70;;
35578;SDS011;21687;48.900;9.188;2023-11-21T01:30:37;4.27;;;1.90;;
35578;SDS011;21687;48.900;9.188;2023-11-21T01:33:04;5.17;;;1.53;;
35578;SDS011;21687;48.900;9.188;2023-11-21T01:35:30;5.40;;;2.07;;
35578;SDS011;21687;48.900;9.188;2023-11-21T01:37:57;5.07;;;1.60;;
35578;SDS011;21687;48.900;9.188;2023-11-21T01:40:23;3.77;;;1.70;;
35578;SDS011;21687;48.900;9.188;2023-11-21T01:42:50;8.60;;;2.03;;
35578;SDS011;21687;48.900;9.188;2023-11-21T01:45:18;7.27;;;1.80;;
35578;SDS011;21687;48.900;9.188;2023-11-21T01:47:45;3.90;;;1.57;;
35578;SDS011;21687;48.900;9.188;2023-11-21T01:50:15;2.83;;;1.80;;
35578;SDS011;21687;48.900;9.188;2023-11-21T01:52:47;5.43;;;1.80;;
35578;SDS011;21687;48.900;9.188;2023-11-21T01:55:14;3.17;;;1.73;;
35578;SDS011;21687;48.900;9.188;2023-11-21T01:57:45;4.57;;;2.00;;
35578;SDS011;21687;48.900;9.188;2023-11-21T02:00:12;3.20;;;1.80;;
35578;SDS011;21687;48.900;9.188;2023-11-21T02:02:45;5.73;;;1.90;;
35578;SDS011;21687;48.900;9.188;2023-11-21T02:05:13;5.13;;;1.87;;
35578;SDS011;21687;48.900;9.188;2023-11-21T02:07:43;8.87;;;2.40;;
35578;SDS011;21687;48.900;9.188;2023-11-21T02:10:10;5.13;;;1.90;;
35578;SDS011;21687;48.900;9.188;2023-11-21T02:12:40;5.50;;;1.83;;
35578;SDS011;21687;48.900;9.188;2023-11-21T02:15:08;3.90;;;1.70;;
35578;SDS011;21687;48.900;9.188;2023-11-21T02:17:45;2.70;;;1.70;;
35578;SDS011;21687;48.900;9.188;2023-11-21T02:20:12;3.97;;;2.20;;
35578;SDS011;21687;48.900;9.188;2023-11-21T02:22:43;3.43;;;1.80;;
35578;SDS011;21687;48.900;9.188;2023-11-21T02:27:56;1.80;;;1.43;;
35578;SDS011;21687;48.900;9.188;2023-11-21T02:30:24;3.83;;;2.17;;
35578;SDS011;21687;48.900;9.188;2023-11-21T02:32:51;2.10;;;1.90;;
35578;SDS011;21687;48.900;9.188;2023-11-21T02:35:22;4.67;;;1.67;;
35578;SDS011;21687;48.900;9.188;2023-11-21T02:41:12;3.00;;;1.83;;
35578;SDS011;21687;48.900;9.188;2023-11-21T02:43:39;4.90;;;1.80;;
35578;SDS011;21687;48.900;9.188;2023-11-21T02:46:05;4.30;;;1.60;;
35578;SDS011;21687;48.900;9.188;2023-11-21T02:48:32;3.30;;;1.53;;
35578;SDS011;21687;48.900;9.188;2023-11-21T02:50:58;5.43;;;2.07;;
35578;SDS011;21687;48.900;9.188;2023-11-21T02:53:24;1.70;;;1.40;;
35578;SDS011;21687;48.900;9.188;2023-11-21T02:55:51;3.93;;;1.83;;
35578;SDS011;21687;48.900;9.188;2023-11-21T02:58:17;2.80;;;1.50;;
35578;SDS011;21687;48.900;9.188;2023-11-21T03:00:43;3.00;;;1.63;;
35578;SDS011;21687;48.900;9.188;2023-11-21T03:03:09;2.50;;;1.50;;
35578;SDS011;21687;48.900;9.188;2023-11-21T03:05:36;3.43;;;1.57;;
35578;SDS011;21687;48.900;9.188;2023-11-21T03:08:02;4.17;;;1.83;;
35578;SDS011;21687;48.900;9.188;2023-11-21T03:10:28;5.37;;;1.70;;
35578;SDS011;21687;48.900;9.188;2023-11-21T03:12:55;3.97;;;1.50;;
35578;SDS011;21687;48.900;9.188;2023-11-21T03:15:22;3.83;;;1.57;;
35578;SDS011;21687;48.900;9.188;2023-11-21T03:17:48;3.93;;;1.50;;
35578;SDS011;21687;48.900;9.188;2023-11-21T03:20:15;6.87;;;1.73;;
35578;SDS011;21687;48.900;9.188;2023-11-21T03:22:41;3.27;;;1.23;;
35578;SDS011;21687;48.900;9.188;2023-11-21T03:25:07;2.63;;;1.60;;
35578;SDS011;21687;48.900;9.188;2023-11-21T03:27:36;2.67;;;1.60;;
35578;SDS011;21687;48.900;9.188;2023-11-21T03:30:04;3.67;;;1.50;;
35578;SDS011;21687;48.900;9.188;2023-11-21T03:32:32;2.47;;;1.53;;
35578;SDS011;21687;48.900;9.188;2023-11-21T03:34:59;2.87;;;1.40;;
35578;SDS011;21687;48.900;9.188;2023-11-21T03:37:27;4.10;;;1.50;;
35578;SDS011;21687;48.900;9.188;2023-11-21T03:39:54;4.70;;;1.70;;
35578;SDS011;21687;48.900;9.188;2023-11-21T03:42:21;5.53;;;2.13;;
35578;SDS011;21687;48.900;9.188;2023-11-21T03:44:47;3.33;;;1.87;;
35578;SDS011;21687;48.900;9.188;2023-11-21T03:47:14;4.07;;;1.70;;
35578;SDS011;21687;48.900;9.188;2023-11-21T03:49:40;3.93;;;1.47;;
35578;SDS011;21687;48.900;9.188;2023-11-21T03:52:07;3.53;;;2.00;;
35578;SDS011;21687;48.900;9.188;2023-11-21T03:54:34;3.00;;;1.40;;
35578;SDS011;21687;48.900;9.188;2023-11-21T03:57:01;1.60;;;1.50;;
35578;SDS011;21687;48.900;9.188;2023-11-21T03:59:27;4.23;;;1.50;;
35578;SDS011;21687;48.900;9.188;2023-11-21T04:01:55;4.30;;;1.70;;
35578;SDS011;21687;48.900;9.188;2023-11-21T04:04:22;4.00;;;1.50;;
35578;SDS011;21687;48.900;9.188;2023-11-21T04:06:48;3.77;;;1.80;;
35578;SDS011;21687;48.900;9.188;2023-11-21T04:09:16;4.17;;;1.60;;
35578;SDS011;21687;48.900;9.188;2023-11-21T04:11:43;2.60;;;1.47;;
35578;SDS011;21687;48.900;9.188;2023-11-21T04:14:10;4.43;;;1.70;;
35578;SDS011;21687;48.900;9.188;2023-11-21T04:16:37;2.13;;;1.50;;
35578;SDS011;21687;48.900;9.188;2023-11-21T04:19:03;3.10;;;1.57;;
35578;SDS011;21687;48.900;9.188;2023-11-21T04:21:29;1.97;;;1.77;;
35578;SDS011;21687;48.900;9.188;2023-11-21T04:23:58;3.17;;;1.40;;
35578;SDS011;21687;48.900;9.188;2023-11-21T04:26:24;2.27;;;1.47;;
35578;SDS011;21687;48.900;9.188;2023-11-21T04:28:51;2.73;;;2.13;;
35578;SDS011;21687;48.900;9.188;2023-11-21T04:31:17;1.83;;;1.50;;
35578;SDS011;21687;48.900;9.188;2023-11-21T04:33:43;3.43;;;1.70;;
35578;SDS011;21687;48.900;9.188;2023-11-21T04:36:10;2.10;;;1.60;;
35578;SDS011;21687;48.900;9.188;2023-11-21T04:38:36;3.10;;;1.50;;
35578;SDS011;21687;48.900;9.188;2023-11-21T04:41:03;2.17;;;1.37;;
35578;SDS011;21687;48.900;9.188;2023-11-21T04:43:29;4.70;;;1.70;;
35578;SDS011;21687;48.900;9.188;2023-11-21T04:45:55;3.57;;;1.67;;
35578;SDS011;21687;48.900;9.188;2023-11-21T04:48:21;3.47;;;1.60;;
35578;SDS011;21687;48.900;9.188;2023-11-21T04:50:48;6.57;;;3.70;;
35578;SDS011;21687;48.900;9.188;2023-11-21T04:53:14;5.17;;;2.63;;
35578;SDS011;21687;48.900;9.188;2023-11-21T04:55:40;2.90;;;1.80;;
35578;SDS011;21687;48.900;9.188;2023-11-21T04:58:07;4.67;;;1.67;;
35578;SDS011;21687;48.900;9.188;2023-11-21T05:00:34;3.63;;;1.83;;
35578;SDS011;21687;48.900;9.188;2023-11-21T05:03:02;5.50;;;1.90;;
35578;SDS011;21687;48.900;9.188;2023-11-21T05:05:29;4.80;;;2.03;;
35578;SDS011;21687;48.900;9.188;2023-11-21T05:07:55;3.73;;;1.60;;
35578;SDS011;21687;48.900;9.188;2023-11-21T05:10:22;3.67;;;1.70;;
35578;SDS011;21687;48.900;9.188;2023-11-21T05:12:48;2.83;;;2.37;;
35578;SDS011;21687;48.900;9.188;2023-11-21T05:15:17;3.07;;;1.87;;
35578;SDS011;21687;48.900;9.188;2023-11-21T05:17:44;5.53;;;1.87;;
35578;SDS011;21687;48.900;9.188;2023-11-21T05:20:11;5.73;;;2.40;;
35578;SDS011;21687;48.900;9.188;2023-11-21T05:22:39;5.47;;;3.00;;
35578;SDS011;21687;48.900;9.188;2023-11-21T05:25:07;5.37;;;2.50;;
35578;SDS011;21687;48.900;9.188;2023-11-21T05:27:34;2.10;;;1.90;;
35578;SDS011;21687;48.900;9.188;2023-11-21T05:30:04;4.40;;;2.17;;
35578;SDS011;21687;48.900;9.188;2023-11-21T05:32:31;3.80;;;1.83;;
35578;SDS011;21687;48.900;9.188;2023-11-21T05:34:58;4.50;;;1.90;;
35578;SDS011;21687;48.900;9.188;2023-11-21T05:37:24;3.47;;;2.00;;
35578;SDS011;21687;48.900;9.188;2023-11-21T05:39:52;2.27;;;1.67;;
35578;SDS011;21687;48.900;9.188;2023-11-21T05:42:22;5.60;;;2.40;;
35578;SDS011;21687;48.900;9.188;2023-11-21T05:44:48;4.63;;;2.20;;
35578;SDS011;21687;48.900;9.188;2023-11-21T05:47:15;4.10;;;2.80;;
35578;SDS011;21687;48.900;9.188;2023-11-21T05:49:41;3.93;;;2.50;;
35578;SDS011;21687;48.900;9.188;2023-11-21T05:52:07;4.13;;;2.57;;
35578;SDS011;21687;48.900;9.188;2023-11-21T05:54:33;6.10;;;2.57;;
35578;SDS011;21687;48.900;9.188;2023-11-21T05:57:00;3.07;;;2.23;;
35578;SDS011;21687;48.900;9.188;2023-11-21T05:59:26;3.70;;;2.30;;
35578;SDS011;21687;48.900;9.188;2023-11-21T06:01:52;2.30;;;2.10;;
35578;SDS011;21687;48.900;9.188;2023-11-21T06:04:19;3.37;;;2.23;;
35578;SDS011;21687;48.900;9.188;2023-11-21T06:06:49;6.83;;;2.30;;
35578;SDS011;21687;48.900;9.188;2023-11-21T06:09:16;3.60;;;2.20;;
35578;SDS011;21687;48.900;9.188;2023-11-21T06:11:43;5.63;;;2.40;;
35578;SDS011;21687;48.900;9.188;2023-11-21T06:14:09;3.93;;;2.33;;
35578;SDS011;21687;48.900;9.188;2023-11-21T06:16:36;2.87;;;2.30;;
35578;SDS011;21687;48.900;9.188;2023-11-21T06:19:02;3.43;;;2.30;;
35578;SDS011;21687;48.900;9.188;2023-11-21T06:21:30;2.50;;;2.20;;
35578;SDS011;21687;48.900;9.188;2023-11-21T06:23:56;2.30;;;1.93;;
35578;SDS011;21687;48.900;9.188;2023-11-21T06:26:23;2.27;;;1.80;;
35578;SDS011;21687;48.900;9.188;2023-11-21T06:28:50;6.30;;;3.20;;
35578;SDS011;21687;48.900;9.188;2023-11-21T06:31:17;3.10;;;1.93;;
35578;SDS011;21687;48.900;9.188;2023-11-21T06:33:44;6.37;;;1.90;;
35578;SDS011;21687;48.900;9.188;2023-11-21T06:36:10;4.57;;;2.20;;
35578;SDS011;21687;48.900;9.188;2023-11-21T06:38:37;3.37;;;1.80;;
35578;SDS011;21687;48.900;9.188;2023-11-21T06:41:03;3.40;;;1.83;;
35578;SDS011;21687;48.900;9.188;2023-11-21T06:43:29;4.50;;;2.40;;
35578;SDS011;21687;48.900;9.188;2023-11-21T06:45:56;4.80;;;1.97;;
35578;SDS011;21687;48.900;9.188;2023-11-21T06:48:23;4.70;;;1.90;;
35578;SDS011;21687;48.900;9.188;2023-11-21T06:50:50;2.87;;;1.90;;
35578;SDS011;21687;48.900;9.188;2023-11-21T06:53:17;4.63;;;2.17;;
35578;SDS011;21687;48.900;9.188;2023-11-21T06:55:43;4.23;;;2.07;;
35578;SDS011;21687;48.900;9.188;2023-11-21T06:58:10;4.47;;;2.27;;
35578;SDS011;21687;48.900;9.188;2023-11-21T07:00:36;3.87;;;2.27;;
35578;SDS011;21687;48.900;9.188;2023-11-21T07:03:03;6.90;;;2.60;;
35578;SDS011;21687;48.900;9.188;2023-11-21T07:05:29;5.87;;;2.20;;
35578;SDS011;21687;48.900;9.188;2023-11-21T07:07:55;3.20;;;2.37;;
35578;SDS011;21687;48.900;9.188;2023-11-21T07:10:22;2.87;;;2.00;;
35578;SDS011;21687;48.900;9.188;2023-11-21T07:12:48;2.93;;;2.23;;
35578;SDS011;21687;48.900;9.188;2023-11-21T07:15:16;2.37;;;2.07;;
35578;SDS011;21687;48.900;9.188;2023-11-21T07:17:44;3.53;;;2.50;;
35578;SDS011;21687;48.900;9.188;2023-11-21T07:20:12;4.33;;;1.90;;
35578;SDS011;21687;48.900;9.188;2023-11-21T07:22:39;3.17;;;2.27;;
35578;SDS011;21687;48.900;9.188;2023-11-21T07:25:05;3.47;;;2.20;;
35578;SDS011;21687;48.900;9.188;2023-11-21T07:27:32;3.37;;;2.10;;
35578;SDS011;21687;48.900;9.188;2023-11-21T07:30:00;2.57;;;1.70;;
35578;SDS011;21687;48.900;9.188;2023-11-21T07:32:30;2.50;;;2.23;;
35578;SDS011;21687;48.900;9.188;2023-11-21T07:34:56;2.73;;;2.07;;
35578;SDS011;21687;48.900;9.188;2023-11-21T07:37:24;2.87;;;2.10;;
35578;SDS011;21687;48.900;9.188;2023-11-21T07:39:54;2.17;;;1.97;;
35578;SDS011;21687;48.900;9.188;2023-11-21T07:42:23;4.30;;;2.80;;
35578;SDS011;21687;48.900;9.188;2023-11-21T07:44:51;4.83;;;2.33;;
35578;SDS011;21687;48.900;9.188;2023-11-21T07:47:18;12.17;;;2.50;;
35578;SDS011;21687;48.900;9.188;2023-11-21T07:49:44;2.90;;;2.13;;
35578;SDS011;21687;48.900;9.188;2023-11-21T07:52:11;3.03;;;2.40;;
35578;SDS011;21687;48.900;9.188;2023-11-21T07:54:38;4.03;;;2.30;;
35578;SDS011;21687;48.900;9.188;2023-11-21T07:57:04;3.30;;;2.20;;
35578;SDS011;21687;48.900;9.188;2023-11-21T07:59:31;4.67;;;2.67;;
35578;SDS011;21687;48.900;9.188;2023-11-21T08:01:57;3.50;;;2.37;;
35578;SDS011;21687;48.900;9.188;2023-11-21T08:04:24;4.30;;;2.30;;
35578;SDS011;21687;48.900;9.188;2023-11-21T08:06:50;3.87;;;2.87;;
35578;SDS011;21687;48.900;9.188;2023-11-21T08:09:16;3.37;;;2.30;;
35578;SDS011;21687;48.900;9.188;2023-11-21T08:11:43;3.73;;;2.27;;
35578;SDS011;21687;48.900;9.188;2023-11-21T08:14:09;3.13;;;2.00;;
35578;SDS011;21687;48.900;9.188;2023-11-21T08:16:35;3.70;;;2.53;;
35578;SDS011;21687;48.900;9.188;2023-11-21T08:19:01;2.97;;;1.93;;
35578;SDS011;21687;48.900;9.188;2023-11-21T08:21:28;3.03;;;2.00;;
35578;SDS011;21687;48.900;9.188;2023-11-21T08:23:54;4.13;;;2.20;;
35578;SDS011;21687;48.900;9.188;2023-11-21T08:26:23;2.97;;;2.27;;
35578;SDS011;21687;48.900;9.188;2023-11-21T08:28:50;2.57;;;2.07;;
35578;SDS011;21687;48.900;9.188;2023-11-21T08:31:23;3.63;;;2.10;;
35578;SDS011;21687;48.900;9.188;2023-11-21T08:33:52;2.13;;;1.87;;
35578;SDS011;21687;48.900;9.188;2023-11-21T08:36:24;2.70;;;2.00;;
35578;SDS011;21687;48.900;9.188;2023-11-21T08:38:51;3.87;;;1.90;;
35578;SDS011;21687;48.900;9.188;2023-11-21T08:41:17;3.27;;;2.60;;
35578;SDS011;21687;48.900;9.188;2023-11-21T08:43:47;2.10;;;1.97;;
35578;SDS011;21687;48.900;9.188;2023-11-21T08:46:18;2.37;;;1.83;;
35578;SDS011;21687;48.900;9.188;2023-11-21T08:48:44;2.33;;;1.70;;
35578;SDS011;21687;48.900;9.188;2023-11-21T08:51:11;2.03;;;1.93;;
35578;SDS011;21687;48.900;9.188;2023-11-21T08:53:38;3.00;;;2.30;;
35578;SDS011;21687;48.900;9.188;2023-11-21T08:56:04;2.57;;;2.10;;
35578;SDS011;21687;48.900;9.188;2023-11-21T08:58:31;2.40;;;2.00;;
35578;SDS011;21687;48.900;9.188;2023-11-21T09:00:57;1.90;;;1.80;;
35578;SDS011;21687;48.900;9.188;2023-11-21T09:03:24;2.10;;;1.90;;
35578;SDS011;21687;48.900;9.188;2023-11-21T09:05:50;2.17;;;1.90;;
35578;SDS011;21687;48.900;9.188;2023-11-21T09:08:17;6.77;;;2.20;;
35578;SDS011;21687;48.900;9.188;2023-11-21T09:10:43;3.37;;;2.17;;
35578;SDS011;21687;48.900;9.188;2023-11-21T09:13:12;2.20;;;2.00;;
35578;SDS011;21687;48.900;9.188;2023-11-21T09:15:38;2.27;;;2.10;;
35578;SDS011;21687;48.900;9.188;2023-11-21T09:18:05;2.33;;;1.93;;
35578;SDS011;21687;48.900;9.188;2023-11-21T09:20:31;2.00;;;1.90;;
35578;SDS011;21687;48.900;9.188;2023-11-21T09:22:58;4.23;;;2.00;;
35578;SDS011;21687;48.900;9.188;2023-11-21T09:25:24;3.17;;;2.87;;
35578;SDS011;21687;48.900;9.188;2023-11-21T09:27:50;2.60;;;2.23;;
35578;SDS011;21687;48.900;9.188;2023-11-21T09:30:17;2.40;;;1.80;;
35578;SDS011;21687;48.900;9.188;2023-11-21T09:32:43;2.07;;;1.83;;
35578;SDS011;21687;48.900;9.188;2023-11-21T09:35:10;1.90;;;1.80;;
35578;SDS011;21687;48.900;9.188;2023-11-21T09:37:39;2.40;;;1.50;;
35578;SDS011;21687;48.900;9.188;2023-11-21T09:40:06;3.57;;;1.83;;
35578;SDS011;21687;48.900;9.188;2023-11-21T09:42:48;2.97;;;1.60;;
35578;SDS011;21687;48.900;9.188;2023-11-21T09:45:25;2.37;;;1.80;;
35578;SDS011;21687;48.900;9.188;2023-11-21T09:47:54;1.83;;;1.73;;
35578;SDS011;21687;48.900;9.188;2023-11-21T09:50:21;1.97;;;1.87;;
35578;SDS011;21687;48.900;9.188;2023-11-21T09:55:22;1.80;;;1.70;;
35578;SDS011;21687;48.900;9.188;2023-11-21T09:57:55;1.80;;;1.70;;
35578;SDS011;21687;48.900;9.188;2023-11-21T10:00:23;2.10;;;1.40;;
35578;SDS011;21687;48.900;9.188;2023-11-21T10:02:49;1.30;;;1.03;;
35578;SDS011;21687;48.900;9.188;2023-11-21T10:05:18;2.50;;;1.37;;
35578;SDS011;21687;48.900;9.188;2023-11-21T10:07:47;1.20;;;1.20;;
35578;SDS011;21687;48.900;9.188;2023-11-21T10:10:18;1.37;;;1.20;;
35578;SDS011;21687;48.900;9.188;2023-11-21T10:12:48;1.33;;;1.23;;
35578;SDS011;21687;48.900;9.188;2023-11-21T10:15:18;1.50;;;1.40;;
35578;SDS011;21687;48.900;9.188;2023-11-21T10:17:48;1.30;;;1.20;;
35578;SDS011;21687;48.900;9.188;2023-11-21T10:20:15;1.60;;;1.50;;
35578;SDS011;21687;48.900;9.188;2023-11-21T10:22:42;2.20;;;1.67;;
35578;SDS011;21687;48.900;9.188;2023-11-21T10:25:09;2.13;;;1.50;;
35578;SDS011;21687;48.900;9.188;2023-11-21T10:27:36;1.47;;;1.37;;
35578;SDS011;21687;48.900;9.188;2023-11-21T10:30:07;3.63;;;1.60;;
35578;SDS011;21687;48.900;9.188;2023-11-21T10:32:40;2.23;;;1.50;;
35578;SDS011;21687;48.900;9.188;2023-11-21T10:35:09;1.70;;;1.60;;
35578;SDS011;21687;48.900;9.188;2023-11-21T10:37:36;3.00;;;1.60;;
35578;SDS011;21687;48.900;9.188;2023-11-21T10:40:07;1.70;;;1.60;;
35578;SDS011;21687;48.900;9.188;2023-11-21T10:42:38;1.70;;;1.60;;
35578;SDS011;21687;48.900;9.188;2023-11-21T10:45:05;1.77;;;1.67;;
35578;SDS011;21687;48.900;9.188;2023-11-21T10:47:43;2.40;;;2.20;;
35578;SDS011;21687;48.900;9.188;2023-11-21T10:50:09;3.53;;;1.90;;
35578;SDS011;21687;48.900;9.188;2023-11-21T10:52:37;1.80;;;1.70;;
35578;SDS011;21687;48.900;9.188;2023-11-21T10:55:17;1.60;;;1.50;;
35578;SDS011;21687;48.900;9.188;2023-11-21T10:57:51;4.17;;;1.80;;
35578;SDS011;21687;48.900;9.188;2023-11-21T11:00:19;2.73;;;1.97;;
35578;SDS011;21687;48.900;9.188;2023-11-21T11:02:50;1.87;;;1.77;;
35578;SDS011;21687;48.900;9.188;2023-11-21T11:05:19;2.27;;;1.80;;
35578;SDS011;21687;48.900;9.188;2023-11-21T11:07:50;1.70;;;1.60;;
35578;SDS011;21687;48.900;9.188;2023-11-21T11:10:37;2.10;;;2.00;;
35578;SDS011;21687;48.900;9.188;2023-11-21T11:13:03;2.87;;;1.87;;
35578;SDS011;21687;48.900;9.188;2023-11-21T11:15:31;2.33;;;2.13;;
35578;SDS011;21687;48.900;9.188;2023-11-21T11:17:58;2.40;;;2.20;;
35578;SDS011;21687;48.900;9.188;2023-11-21T11:20:27;2.60;;;2.40;;
35578;SDS011;21687;48.900;9.188;2023-11-21T11:25:53;2.37;;;2.27;;
35578;SDS011;21687;48.900;9.188;2023-11-21T11:28:40;2.60;;;2.40;;
35578;SDS011;21687;48.900;9.188;2023-11-21T11:34:30;3.23;;;2.70;;
35578;SDS011;21687;48.900;9.188;2023-11-21T11:37:02;2.80;;;2.60;;
35578;SDS011;21687;48.900;9.188;2023-11-21T11:39:35;2.80;;;2.60;;
35578;SDS011;21687;48.900;9.188;2023-11-21T11:42:14;3.17;;;2.53;;
35578;SDS011;21687;48.900;9.188;2023-11-21T11:47:15;3.23;;;2.27;;
35578;SDS011;21687;48.900;9.188;2023-11-21T11:55:38;3.47;;;3.17;;
35578;SDS011;21687;48.900;9.188;2023-11-21T11:58:05;3.73;;;2.93;;
35578;SDS011;21687;48.900;9.188;2023-11-21T12:03:05;3.30;;;3.10;;
35578;SDS011;21687;48.900;9.188;2023-11-21T12:05:33;3.50;;;3.20;;
35578;SDS011;21687;48.900;9.188;2023-11-21T12:08:04;3.93;;;3.53;;
35578;SDS011;21687;48.900;9.188;2023-11-21T12:10:32;3.73;;;3.43;;
35578;SDS011;21687;48.900;9.188;2023-11-21T12:13:00;3.43;;;3.13;;
35578;SDS011;21687;48.900;9.188;2023-11-21T12:15:32;3.30;;;3.00;;
35578;SDS011;21687;48.900;9.188;2023-11-21T12:18:00;3.20;;;2.90;;
35578;SDS011;21687;48.900;9.188;2023-11-21T12:20:26;3.43;;;3.00;;
35578;SDS011;21687;48.900;9.188;2023-11-21T12:22:54;2.97;;;2.73;;
35578;SDS011;21687;48.900;9.188;2023-11-21T12:25:22;2.70;;;2.50;;
35578;SDS011;21687;48.900;9.188;2023-11-21T12:27:53;2.57;;;2.37;;
35578;SDS011;21687;48.900;9.188;2023-11-21T12:30:22;2.73;;;2.53;;
35578;SDS011;21687;48.900;9.188;2023-11-21T12:32:54;2.40;;;2.20;;
35578;SDS011;21687;48.900;9.188;2023-11-21T12:35:22;2.80;;;2.60;;
35578;SDS011;21687;48.900;9.188;2023-11-21T12:37:50;3.10;;;2.83;;
35578;SDS011;21687;48.900;9.188;2023-11-21T12:40:18;4.47;;;4.03;;
35578;SDS011;21687;48.900;9.188;2023-11-21T12:42:46;2.97;;;2.67;;
35578;SDS011;21687;48.900;9.188;2023-11-21T12:48:10;3.00;;;2.37;;
35578;SDS011;21687;48.900;9.188;2023-11-21T12:50:37;2.20;;;2.00;;
35578;SDS011;21687;48.900;9.188;2023-11-21T12:53:04;2.87;;;2.67;;
35578;SDS011;21687;48.900;9.188;2023-11-21T12:55:37;2.60;;;2.40;;
35578;SDS011;21687;48.900;9.188;2023-11-21T12:58:05;2.97;;;2.40;;
35578;SDS011;21687;48.900;9.188;2023-11-21T13:00:38;2.40;;;2.20;;
35578;SDS011;21687;48.900;9.188;2023-11-21T13:03:08;3.60;;;1.87;;
35578;SDS011;21687;48.900;9.188;2023-11-21T13:05:38;2.33;;;2.13;;
35578;SDS011;21687;48.900;9.188;2023-11-21T13:08:07;3.33;;;3.00;;
35578;SDS011;21687;48.900;9.188;2023-11-21T13:10:37;3.33;;;2.83;;
35578;SDS011;21687;48.900;9.188;2023-11-21T13:13:06;3.10;;;2.90;;
35578;SDS011;21687;48.900;9.188;2023-11-21T13:15:46;2.90;;;2.63;;
35578;SDS011;21687;48.900;9.188;2023-11-21T13:18:14;4.20;;;2.93;;
35578;SDS011;21687;48.900;9.188;2023-11-21T13:20:42;4.27;;;2.87;;
35578;SDS011;21687;48.900;9.188;2023-11-21T13:23:09;3.70;;;3.27;;
35578;SDS011;21687;48.900;9.188;2023-11-21T13:25:41;4.63;;;3.03;;
35578;SDS011;21687;48.900;9.188;2023-11-21T13:28:10;3.47;;;3.17;;
35578;SDS011;21687;48.900;9.188;2023-11-21T13:30:37;3.60;;;3.30;;
35578;SDS011;21687;48.900;9.188;2023-11-21T13:33:05;3.77;;;3.10;;
35578;SDS011;21687;48.900;9.188;2023-11-21T13:35:36;3.47;;;3.17;;
35578;SDS011;21687;48.900;9.188;2023-11-21T13:38:08;3.40;;;3.10;;
35578;SDS011;21687;48.900;9.188;2023-11-21T13:40:36;2.80;;;2.50;;
35578;SDS011;21687;48.900;9.188;2023-11-21T13:43:14;5.23;;;3.00;;
35578;SDS011;21687;48.900;9.188;2023-11-21T13:45:44;3.17;;;2.80;;
35578;SDS011;21687;48.900;9.188;2023-11-21T13:48:11;4.03;;;2.40;;
35578;SDS011;21687;48.900;9.188;2023-11-21T13:50:45;5.40;;;3.53;;
35578;SDS011;21687;48.900;9.188;2023-11-21T13:53:23;2.97;;;2.60;;
35578;SDS011;21687;48.900;9.188;2023-11-21T13:55:50;3.23;;;2.90;;
35578;SDS011;21687;48.900;9.188;2023-11-21T13:58:22;3.00;;;2.40;;
35578;SDS011;21687;48.900;9.188;2023-11-21T14:01:07;3.07;;;2.40;;
35578;SDS011;21687;48.900;9.188;2023-11-21T14:03:50;4.20;;;3.27;;
35578;SDS011;21687;48.900;9.188;2023-11-21T14:06:22;3.50;;;2.67;;
35578;SDS011;21687;48.900;9.188;2023-11-21T14:08:53;4.93;;;2.57;;
35578;SDS011;21687;48.900;9.188;2023-11-21T14:11:21;2.47;;;2.27;;
35578;SDS011;21687;48.900;9.188;2023-11-21T14:13:48;2.43;;;2.27;;
35578;SDS011;21687;48.900;9.188;2023-11-21T14:16:14;2.67;;;2.47;;
35578;SDS011;21687;48.900;9.188;2023-11-21T14:18:45;2.87;;;2.43;;
35578;SDS011;21687;48.900;9.188;2023-11-21T14:21:40;3.30;;;2.83;;
35578;SDS011;21687;48.900;9.188;2023-11-21T14:24:12;2.83;;;2.63;;
35578;SDS011;21687;48.900;9.188;2023-11-21T14:26:42;2.57;;;2.37;;
35578;SDS011;21687;48.900;9.188;2023-11-21T14:29:14;2.77;;;2.40;;
35578;SDS011;21687;48.900;9.188;2023-11-21T14:31:45;4.23;;;3.63;;
35578;SDS011;21687;48.900;9.188;2023-11-21T14:34:12;7.73;;;2.97;;
35578;SDS011;21687;48.900;9.188;2023-11-21T14:36:40;3.40;;;3.10;;
35578;SDS011;21687;48.900;9.188;2023-11-21T14:39:06;2.33;;;2.20;;
35578;SDS011;21687;48.900;9.188;2023-11-21T14:41:36;2.40;;;2.20;;
35578;SDS011;21687;48.900;9.188;2023-11-21T14:44:04;3.07;;;2.40;;
35578;SDS011;21687;48.900;9.188;2023-11-21T14:46:32;4.17;;;2.57;;
35578;SDS011;21687;48.900;9.188;2023-11-21T14:49:01;4.63;;;3.00;;
35578;SDS011;21687;48.900;9.188;2023-11-21T14:51:44;2.87;;;2.37;;
35578;SDS011;21687;48.900;9.188;2023-11-21T14:54:31;3.13;;;2.80;;
35578;SDS011;21687;48.900;9.188;2023-11-21T14:57:11;3.43;;;2.90;;
35578;SDS011;21687;48.900;9.188;2023-11-21T14:59:48;3.10;;;2.80;;
35578;SDS011;21687;48.900;9.188;2023-11-21T15:02:22;3.37;;;3.00;;
35578;SDS011;21687;48.900;9.188;2023-11-21T15:05:07;3.07;;;2.87;;
35578;SDS011;21687;48.900;9.188;2023-11-21T15:07:40;4.77;;;3.73;;
35578;SDS011;21687;48.900;9.188;2023-11-21T15:10:06;3.93;;;3.17;;
35578;SDS011;21687;48.900;9.188;2023-11-21T15:12:39;4.50;;;3.60;;
35578;SDS011;21687;48.900;9.188;2023-11-21T15:15:08;6.47;;;4.13;;
35578;SDS011;21687;48.900;9.188;2023-11-21T15:17:36;4.77;;;3.90;;
35578;SDS011;21687;48.900;9.188;2023-11-21T15:20:04;5.17;;;3.97;;
35578;SDS011;21687;48.900;9.188;2023-11-21T15:22:32;5.03;;;3.90;;
35578;SDS011;21687;48.900;9.188;2023-11-21T15:24:59;8.03;;;4.83;;